Estación Meteorológica Peña el Pijo (Robertgarden) [ 09/25/17 15:14:37 CEST ]

Fecha Hora Presion(HPa) Temp (°C) Humedad % Rocio (°C) Viento ( m/s) Direccion Lluvia 1Hora(mm) Lluvia 24H(mm) LLuvia Total(mm)
2017-Jun-22 01:01:45 1013.700 18.9 66 12.4         1427.60
2017-Jun-22 02:01:47 1013.600 17.9 66 11.4         1427.60
2017-Jun-22 03:01:34 1013.500 17.8 67 11.6         1427.60
2017-Jun-22 04:01:34 1013.300 15.9 70 10.5         1427.60
2017-Jun-22 05:01:37 1013.100 15.2 74 10.6         1427.60
2017-Jun-22 06:01:35 1013.200 14.4 76 10.2         1427.60
2017-Jun-22 07:02:00 1013.500 13.9 76 9.7         1427.60
2017-Jun-22 08:01:42 1013.800 16.6 77 12.5         1427.60
2017-Jun-22 09:01:50 1013.800 22.6 62 14.9         1427.60
2017-Jun-22 10:01:49 1014.100 28.6 44 15.1         1427.60
2017-Jun-22 11:01:36 1013.800 33.5 34 15.4         1427.60
2017-Jun-22 12:01:48 1013.700 35.4 29 14.6         1427.60
2017-Jun-22 13:01:47 1013.600 36.1 27 13.9         1427.60
2017-Jun-22 14:01:51 1013.300 35.9 25 12.6         1427.60
2017-Jun-22 15:01:42 1013.400 35.6 25 12.3         1427.60
2017-Jun-22 16:01:39 1013.200 35.3 23 10.8         1427.60
2017-Jun-22 17:01:33 1012.900 33.6 26 11.2         1427.60
2017-Jun-22 18:01:33 1012.800 32.2 27 10.8         1427.60
2017-Jun-22 19:01:31 1013.100 31.3 30 11.8         1427.60
2017-Jun-22 20:01:27 1013.500 28.9 33 11.1         1427.60
2017-Jun-22 21:01:20 1013.900 26.9 37 10.5         1427.60
2017-Jun-22 22:01:37 1014.000 25.5 40 10.9         1427.60
2017-Jun-22 23:01:20 1015.000 22.5 49 11.2         1427.60

Temperatura Máxima:36°    Temperatura Mínima:13°
Presión Máxima:1015.000 Hpa    Presión Mínima:1012.800 Hpa


Volver